KIOW

Iowa City Municipal Airport

Iowa City, Iowa, USA
METAR KIOW 191152Z AUTO 13005KT 10SM FEW120 03/M01 A2981 RMK AO2 SLP101 T00281011 10039 20011 58020
Observed Flight Rules
Dec-19 @ 11:52 UTC (32 minutes ago) Visual Flight Rules
Wind Visibility Clouds
130° at 5 knots 10 miles
  • Few at 12,000' AGL
Temperatures Readings
Current 3°C / 37°F
Dewpoint -1°C / 30°F
Humidity 75%
Altimeter 29.81" Hg
Pressure 1010.1 hPa
Elevation 198
METAR KIOW 191152Z AUTO 13005KT 10SM FEW120 03/M01 A2981 RMK AO2 SLP101 T00281011 10039 20011 58020
Observed Flight Rules
Dec-19 @ 11:52 UTC
(32 minutes ago)
VFR
Wind Visibility
130° at 5 knots 10 miles
Clouds
  • Few at 12,000' AGL
Temperature Dewpoint
3°C / 37°F -1°C / 30°F
Humidity Altimeter Pressure
75% 29.81" Hg 1010.1 hPa